Flight Number: EUR1565 Duration: 1:30
Departure: Olbia Costa Smeralda (LIEO) at 06:30 Distance: 542 Nm
Arrival: Luxembourg (ELLX) at 08:00 Equipment: B737

Weather Information
Olbia / Costa Smeralda, Italy (LIEO) 40-54N 009-31E 13M Aug 19, 2018 - 04:50 AM EDT / 2018.08.19 0850 UTC
Wind: from the SW (220 degrees) at 7 MPH (6 KT):0
Visibility: greater than 7 mile(s):0
Sky conditions: partly cloudy Temperature: 75 F (24 C) Dew Point: 64 F (18 C) Relative Humidity: 69% Pressure (altimeter): 30.03 in. Hg (1017 hPa)
ob: LIEO 190850Z 22006KT 9999 SCT030 24/18 Q1017 cycle: 9
Sunrise: 04:39 Sunset: 18:11 (UTC)

Luxembourg / Luxembourg, Luxembourg (ELLX) 49-37N 006-13E 379M Aug 19, 2018 - 04:50 AM EDT / 2018.08.19 0850 UTC
Wind: Variable at 6 MPH (5 KT):0
Visibility: greater than 7 mile(s):0
Sky conditions: mostly clear Temperature: 69 F (21 C) Dew Point: 53 F (12 C) Relative Humidity: 56% Pressure (altimeter): 30.24 in. Hg (1024 hPa)
ob: ELLX 190850Z VRB05KT 9999 FEW035 21/12 Q1024 NOSIG cycle: 9
Sunrise: 04:36 Sunset: 18:41 (UTC)

TAF:2018/08/19 06:27 TAF ELLX 190500Z 1906/2012 28005KT CAVOK TEMPO 2003/2011 4000 -DZ BKN008

Previous Pireps for this route
Date Aircraft Flight time Fuel used Landing rate On time
2016-05-16B73702.0810551-268No
(pireps marked green are flown by you)

Route map